Portada
METAR-TAF:

METAR-TAF

Aeroports :

Clayton Lake, Maine, Estats Units d'Amèrica

latitud: 46-37N, longitud: 069-32W, altitud: 314 m

Observació

L'informe es va fer fa 38 minuts, a les 21:16 UTC
Vent 3 kt amb direcció variable amb ràfegues de 11 kt
Temperatura -9°C
Humitat 67%
Pressió 999 hPa

METAR: K40B 282116Z AUTO VRB03G11KT M09/M14 A2950 RMK AO1 SLP022 T10881137 52019

Hora: 16:54 (21:54 UTC)


TAF: manca

Observacions i pronòstics meteorològics de més de 4000 aeroports (METAR i TAF).

Les estacions disponibles són els punts grocs i vermells al mapa.

Posi el ratolí al punt desitjat per veure el nom de l'estació.

Feu clic per veure les observacions i els pronòstics meteorològics.

Per canviar el mapa: feu clic els botons verds amb una creu de color negre per apropar; al botó verd amb un guió per allunyar la imatge; o en les fletxes verdes per a mapes adjacents.


METAR-TAF: